Time;durP1;ratioP1;P1;durP2;ratioP2;P2;SDS_P1;SDS_P2;PMS_P1;PMS_P2;Temp;Humidity;BMP_temperature;BMP_pressure;BME280_temperature;BME280_humidity;BME280_pressure;Samples;Min_cycle;Max_cycle;Signal;HPM_P1;HPM_P2
2021/12/02 00:00:35;;;;;;;0.20;0.20;;;8.10;57.40;;;;;;21254;6687;67144;-89
2021/12/02 00:03:03;;;;;;;0.30;0.30;;;7.90;57.90;;;;;;21038;6687;273450;-86
2021/12/02 00:05:26;;;;;;;0.30;0.30;;;8.00;58.30;;;;;;21033;6687;308319;-86
2021/12/02 00:07:52;;;;;;;0.30;0.30;;;8.70;57.50;;;;;;21029;6687;296501;-86
2021/12/02 00:10:18;;;;;;;0.30;0.30;;;8.60;57.40;;;;;;21265;6687;71240;-88
2021/12/02 00:12:44;;;;;;;1.10;0.40;;;8.50;57.30;;;;;;21116;6687;301686;-91
2021/12/02 00:15:17;;;;;;;1.90;0.30;;;8.60;57.50;;;;;;21106;6687;278489;-88
2021/12/02 00:17:39;;;;;;;0.30;0.20;;;8.70;57.00;;;;;;20998;6687;335892;-86
2021/12/02 00:22:58;;;;;;;0.33;0.33;;;9.00;56.20;;;;;;21261;6687;68988;-88
2021/12/02 00:25:24;;;;;;;0.40;0.37;;;8.80;56.40;;;;;;21041;6687;272756;-92
2021/12/02 00:27:49;;;;;;;0.20;0.20;;;8.70;56.90;;;;;;21275;6687;67398;-88
2021/12/02 00:30:15;;;;;;;0.40;0.20;;;8.50;56.90;;;;;;21034;6687;273475;-92
2021/12/02 00:32:40;;;;;;;0.83;0.40;;;8.50;57.40;;;;;;21029;6687;274109;-88
2021/12/02 00:35:06;;;;;;;0.40;0.40;;;8.70;57.00;;;;;;21021;6687;302644;-89
2021/12/02 00:37:32;;;;;;;0.30;0.30;;;8.80;56.40;;;;;;21246;6687;67192;-90
2021/12/02 00:39:58;;;;;;;0.30;0.30;;;8.60;56.60;;;;;;21024;6687;303056;-88
2021/12/02 00:42:23;;;;;;;0.40;0.40;;;8.60;56.50;;;;;;21249;6685;67474;-86
2021/12/02 00:44:49;;;;;;;0.30;0.25;;;8.50;56.70;;;;;;21032;6687;303374;-86
2021/12/02 00:47:15;;;;;;;0.40;0.20;;;8.50;56.90;;;;;;21035;6687;273385;-92
2021/12/02 00:49:40;;;;;;;0.30;0.30;;;8.70;56.30;;;;;;21256;6687;67713;-85
2021/12/02 00:52:06;;;;;;;0.60;0.30;;;8.50;56.30;;;;;;21028;6687;273693;-86
2021/12/02 00:54:31;;;;;;;1.40;0.40;;;8.40;56.30;;;;;;21281;6687;66620;-92
2021/12/02 00:56:57;;;;;;;0.30;0.30;;;8.30;56.60;;;;;;21238;6687;67510;-85
2021/12/02 00:59:22;;;;;;;2.55;0.40;;;8.10;57.30;;;;;;21040;6687;280246;-87
2021/12/02 01:01:49;;;;;;;0.40;0.30;;;8.10;57.40;;;;;;21025;6687;302474;-89
2021/12/02 01:04:14;;;;;;;0.50;0.33;;;8.30;56.70;;;;;;21237;6687;67695;-91
2021/12/02 01:06:39;;;;;;;0.50;0.20;;;8.20;56.60;;;;;;21016;6687;332775;-87
2021/12/02 01:09:05;;;;;;;0.20;0.20;;;8.20;56.70;;;;;;21242;6687;66534;-87
2021/12/02 01:11:30;;;;;;;0.27;0.20;;;8.10;56.80;;;;;;21242;6687;66627;-88
2021/12/02 01:13:56;;;;;;;0.25;0.22;;;7.80;57.30;;;;;;21035;6687;302572;-89
2021/12/02 01:16:22;;;;;;;0.20;0.20;;;7.80;57.50;;;;;;21065;6687;331386;-87
2021/12/02 01:18:47;;;;;;;2.12;0.40;;;8.10;56.90;;;;;;21323;6687;67257;-87
2021/12/02 01:21:12;;;;;;;0.20;0.20;;;8.00;56.80;;;;;;21027;6687;273516;-91
2021/12/02 01:23:38;;;;;;;0.30;0.30;;;8.10;57.00;;;;;;21019;6687;303429;-88
2021/12/02 01:26:03;;;;;;;0.33;0.27;;;8.20;56.40;;;;;;21243;6687;67006;-87
2021/12/02 01:28:29;;;;;;;0.20;0.20;;;8.10;56.50;;;;;;21082;6687;272343;-92
2021/12/02 01:30:54;;;;;;;0.20;0.20;;;8.10;56.40;;;;;;21304;6687;70728;-88
2021/12/02 01:33:20;;;;;;;0.57;0.47;;;7.90;56.50;;;;;;21255;6687;67165;-86
2021/12/02 01:35:49;;;;;;;0.47;0.32;;;7.60;57.20;;;;;;21034;6687;273208;-86
2021/12/02 01:38:15;;;;;;;0.87;0.30;;;7.60;57.70;;;;;;21254;6687;66619;-93
2021/12/02 01:40:41;;;;;;;1.40;0.40;;;7.60;57.60;;;;;;21264;6687;66961;-87
2021/12/02 01:43:07;;;;;;;0.30;0.30;;;7.20;58.70;;;;;;21303;6687;67150;-86
2021/12/02 01:45:33;;;;;;;0.60;0.30;;;7.20;58.70;;;;;;21028;6687;302776;-87
2021/12/02 01:47:59;;;;;;;0.70;0.47;;;7.40;59.00;;;;;;21025;6687;302811;-91
2021/12/02 01:50:24;;;;;;;0.60;0.40;;;7.70;58.20;;;;;;21011;6687;312772;-90
2021/12/02 01:52:49;;;;;;;0.30;0.30;;;7.90;57.40;;;;;;21232;6687;67198;-86
2021/12/02 01:55:15;;;;;;;0.50;0.32;;;7.80;57.40;;;;;;20984;6685;331436;-91
2021/12/02 01:57:41;;;;;;;1.00;0.40;;;7.80;57.60;;;;;;21242;6687;67233;-87
2021/12/02 02:00:14;;;;;;;0.37;0.37;;;7.70;57.80;;;;;;21034;6687;273776;-87
2021/12/02 02:02:38;;;;;;;2.63;0.60;;;7.70;57.70;;;;;;21234;6687;66985;-86
2021/12/02 02:05:07;;;;;;;0.57;0.40;;;7.60;57.90;;;;;;21028;6687;275835;-86
2021/12/02 02:07:29;;;;;;;1.17;0.40;;;7.70;57.80;;;;;;21017;6687;307067;-86
2021/12/02 02:09:54;;;;;;;1.30;0.70;;;7.90;57.00;;;;;;21233;6687;71204;-90
2021/12/02 02:12:21;;;;;;;0.50;0.50;;;7.90;57.20;;;;;;21027;6687;290562;-90
2021/12/02 02:14:46;;;;;;;1.50;0.40;;;7.90;57.40;;;;;;21249;6687;69606;-86
2021/12/02 02:19:43;;;;;;;0.93;0.43;;;7.50;58.00;;;;;;20438;6687;303411;-89
2021/12/02 02:22:09;;;;;;;0.60;0.40;;;7.60;58.10;;;;;;21108;6687;301985;-88
2021/12/02 02:24:34;;;;;;;3.73;0.87;;;7.90;57.60;;;;;;21250;6687;72953;-86
2021/12/02 02:27:00;;;;;;;0.60;0.50;;;7.80;57.50;;;;;;21252;6687;70960;-86
2021/12/02 02:29:25;;;;;;;0.87;0.40;;;7.60;58.10;;;;;;21031;6687;282283;-91
2021/12/02 02:31:51;;;;;;;0.50;0.50;;;7.60;58.00;;;;;;21029;6687;332166;-86
2021/12/02 02:34:16;;;;;;;0.63;0.30;;;7.90;57.20;;;;;;21251;6687;67579;-86
2021/12/02 02:36:50;;;;;;;0.35;0.35;;;7.70;57.10;;;;;;21004;6687;307579;-92
2021/12/02 02:39:07;;;;;;;0.30;0.30;;;7.70;57.40;;;;;;21223;6687;67066;-86
2021/12/02 02:41:35;;;;;;;1.43;0.40;;;7.60;57.50;;;;;;21243;6687;67185;-86
2021/12/02 02:43:59;;;;;;;0.80;0.50;;;7.40;58.20;;;;;;21022;6687;302454;-89
2021/12/02 02:46:30;;;;;;;0.47;0.47;;;7.40;58.60;;;;;;21099;6687;331852;-91
2021/12/02 02:48:56;;;;;;;0.90;0.47;;;7.70;58.30;;;;;;21234;6687;66651;-84
2021/12/02 02:51:21;;;;;;;1.43;0.50;;;7.60;58.20;;;;;;21019;6687;274244;-89
2021/12/02 02:53:51;;;;;;;0.30;0.30;;;7.60;58.40;;;;;;21021;6687;302885;-86
2021/12/02 02:56:18;;;;;;;0.77;0.50;;;7.80;57.60;;;;;;21041;6687;273843;-88
2021/12/02 03:01:36;;;;;;;0.83;0.40;;;8.10;56.20;;;;;;21035;6687;298192;-86
2021/12/02 03:04:05;;;;;;;0.33;0.30;;;8.20;55.60;;;;;;21238;6687;72872;-90
2021/12/02 03:09:01;;;;;;;0.23;0.23;;;7.40;56.70;;;;;;21254;6687;72997;-91
2021/12/02 03:11:21;;;;;;;1.23;0.47;;;7.10;57.70;;;;;;21231;6687;66561;-87
2021/12/02 03:13:52;;;;;;;0.50;0.50;;;6.80;58.50;;;;;;21249;6687;68484;-86
2021/12/02 03:19:01;;;;;;;0.33;0.30;;;6.40;60.00;;;;;;21251;6687;67578;-86
2021/12/02 03:21:27;;;;;;;1.02;0.50;;;6.30;60.50;;;;;;21039;6687;303938;-88
2021/12/02 03:23:52;;;;;;;0.40;0.40;;;6.50;60.60;;;;;;21296;6687;66652;-91
2021/12/02 03:26:17;;;;;;;0.52;0.52;;;6.60;60.20;;;;;;21286;6687;67503;-86
2021/12/02 03:28:43;;;;;;;0.37;0.37;;;6.50;60.40;;;;;;21251;6687;66803;-85
2021/12/02 03:31:08;;;;;;;1.00;0.43;;;6.40;60.70;;;;;;21037;6687;273654;-87
2021/12/02 03:33:34;;;;;;;1.07;0.60;;;6.60;60.60;;;;;;21247;6687;66709;-85
2021/12/02 03:36:00;;;;;;;0.97;0.30;;;6.70;60.30;;;;;;21250;6687;67577;-88
2021/12/02 03:38:26;;;;;;;1.43;0.60;;;6.80;60.10;;;;;;21018;6687;331862;-87
2021/12/02 03:40:52;;;;;;;1.23;0.50;;;6.80;59.70;;;;;;21245;6687;67604;-85
2021/12/02 03:43:18;;;;;;;0.73;0.50;;;6.70;59.60;;;;;;21027;6687;303229;-86
2021/12/02 03:45:43;;;;;;;0.97;0.40;;;6.90;59.40;;;;;;21243;6687;66625;-86
2021/12/02 03:48:09;;;;;;;0.40;0.40;;;6.90;59.30;;;;;;21025;6687;336288;-85
2021/12/02 03:50:34;;;;;;;0.30;0.30;;;7.00;59.30;;;;;;21241;6687;67456;-85
2021/12/02 03:53:00;;;;;;;0.20;0.20;;;7.00;59.10;;;;;;21248;6687;66562;-90
2021/12/02 03:55:26;;;;;;;0.80;0.40;;;6.70;59.40;;;;;;21032;6687;277980;-89
2021/12/02 03:57:52;;;;;;;2.30;0.40;;;7.10;58.50;;;;;;21004;6702;296295;-87
2021/12/02 04:00:17;;;;;;;0.43;0.43;;;7.10;58.50;;;;;;21012;6702;278340;-86
2021/12/02 04:02:43;;;;;;;0.88;0.30;;;7.30;57.70;;;;;;21056;6702;275889;-88
2021/12/02 04:05:09;;;;;;;0.32;0.30;;;7.50;57.00;;;;;;21029;6687;332711;-85
2021/12/02 04:07:35;;;;;;;0.60;0.57;;;7.80;56.00;;;;;;21038;6687;301891;-86
2021/12/02 04:10:01;;;;;;;1.35;0.55;;;7.80;56.00;;;;;;21037;6687;302668;-85
2021/12/02 04:12:33;;;;;;;0.50;0.50;;;7.90;55.70;;;;;;21255;6687;66552;-86
2021/12/02 04:17:29;;;;;;;0.50;0.43;;;7.60;56.60;;;;;;21059;6686;303485;-88
2021/12/02 04:19:46;;;;;;;0.50;0.50;;;7.80;56.40;;;;;;21238;6687;67061;-83
2021/12/02 04:22:12;;;;;;;0.75;0.50;;;7.30;58.00;;;;;;21274;6687;67025;-83
2021/12/02 04:24:37;;;;;;;0.83;0.60;;;7.30;57.40;;;;;;21266;6687;66543;-84
2021/12/02 04:27:03;;;;;;;0.40;0.40;;;7.00;58.10;;;;;;21288;6687;66600;-88
2021/12/02 04:29:30;;;;;;;0.43;0.43;;;6.60;59.30;;;;;;21288;6687;66664;-85
2021/12/02 04:31:55;;;;;;;0.70;0.70;;;6.60;59.30;;;;;;21286;6687;67139;-88
2021/12/02 04:34:21;;;;;;;0.62;0.62;;;6.30;60.00;;;;;;21286;6687;66994;-90
2021/12/02 04:36:47;;;;;;;0.67;0.60;;;6.30;60.60;;;;;;21281;6687;67065;-85
2021/12/02 04:39:12;;;;;;;1.10;0.70;;;6.20;60.30;;;;;;21069;6687;306160;-86
2021/12/02 04:41:38;;;;;;;0.80;0.52;;;6.50;60.60;;;;;;21063;6687;302353;-89
2021/12/02 04:44:04;;;;;;;1.42;1.00;;;6.90;59.80;;;;;;21077;6687;304915;-85
2021/12/02 04:46:29;;;;;;;0.70;0.70;;;7.20;58.90;;;;;;21327;6687;66586;-90
2021/12/02 04:48:55;;;;;;;2.23;0.80;;;7.10;58.60;;;;;;21305;6687;66968;-87
2021/12/02 04:51:20;;;;;;;1.42;0.70;;;6.90;59.20;;;;;;21278;6687;66593;-90
2021/12/02 04:53:46;;;;;;;1.30;0.93;;;6.70;59.90;;;;;;21069;6687;331717;-90
2021/12/02 04:56:11;;;;;;;2.50;0.67;;;6.80;60.00;;;;;;21288;6687;68418;-91
2021/12/02 04:58:37;;;;;;;1.50;0.80;;;6.90;59.90;;;;;;21290;6687;66962;-87
2021/12/02 05:01:03;;;;;;;0.80;0.80;;;6.70;60.20;;;;;;21290;6687;66529;-90
2021/12/02 05:03:28;;;;;;;1.80;0.83;;;6.60;60.50;;;;;;21287;6687;66626;-88
2021/12/02 05:05:54;;;;;;;1.50;0.77;;;6.50;60.80;;;;;;21300;6687;66578;-85
2021/12/02 05:08:20;;;;;;;0.80;0.70;;;6.30;61.40;;;;;;21295;6687;67108;-84
2021/12/02 05:10:45;;;;;;;0.97;0.70;;;6.30;61.40;;;;;;21292;6687;66979;-88
2021/12/02 05:13:11;;;;;;;1.50;0.70;;;6.30;61.70;;;;;;21292;6687;71372;-90
2021/12/02 05:15:37;;;;;;;0.60;0.60;;;6.20;61.80;;;;;;21320;6687;66618;-85
2021/12/02 05:18:02;;;;;;;2.33;1.05;;;6.20;62.00;;;;;;21112;6687;330174;-87
2021/12/02 05:20:28;;;;;;;1.00;1.00;;;6.50;61.80;;;;;;21074;6687;272864;-86
2021/12/02 05:22:53;;;;;;;1.13;0.90;;;6.90;60.60;;;;;;21052;6687;303224;-86
2021/12/02 05:25:19;;;;;;;0.93;0.93;;;7.20;59.20;;;;;;21265;6687;67043;-84
2021/12/02 05:27:45;;;;;;;1.75;0.82;;;7.00;59.70;;;;;;21286;6687;66918;-84
2021/12/02 05:30:11;;;;;;;0.80;0.80;;;6.90;59.60;;;;;;21277;6686;66616;-85
2021/12/02 05:32:36;;;;;;;0.77;0.70;;;6.70;60.10;;;;;;21311;6687;67080;-86
2021/12/02 05:35:02;;;;;;;2.60;0.80;;;6.60;60.70;;;;;;21063;6687;278859;-86
2021/12/02 05:37:28;;;;;;;1.05;0.70;;;6.70;60.40;;;;;;21056;6687;330692;-85
2021/12/02 05:39:54;;;;;;;1.10;0.80;;;7.40;58.50;;;;;;21041;6687;336682;-85
2021/12/02 05:42:19;;;;;;;1.37;0.60;;;7.40;58.50;;;;;;21250;6687;66548;-87
2021/12/02 05:44:46;;;;;;;0.80;0.80;;;7.40;58.30;;;;;;21060;6687;273588;-86
2021/12/02 05:47:11;;;;;;;0.70;0.70;;;7.40;58.30;;;;;;21269;6687;69594;-85
2021/12/02 05:49:37;;;;;;;1.58;0.98;;;7.30;58.30;;;;;;21302;6687;66215;-90
2021/12/02 05:52:03;;;;;;;1.70;0.80;;;7.10;59.00;;;;;;21293;6687;67551;-87
2021/12/02 05:54:29;;;;;;;0.93;0.90;;;7.00;59.30;;;;;;21041;6687;335732;-89
2021/12/02 05:56:54;;;;;;;0.97;0.97;;;7.00;59.20;;;;;;21257;6687;66783;-85
2021/12/02 05:59:20;;;;;;;1.10;0.67;;;7.10;59.10;;;;;;21265;6687;66978;-85
2021/12/02 06:01:46;;;;;;;1.00;1.00;;;6.90;59.40;;;;;;21034;6687;332458;-87
2021/12/02 06:04:11;;;;;;;1.08;0.90;;;7.00;59.30;;;;;;21042;6687;335991;-85
2021/12/02 06:06:37;;;;;;;1.05;0.90;;;7.30;58.40;;;;;;21046;6687;312157;-88
2021/12/02 06:09:02;;;;;;;1.77;0.90;;;7.60;57.70;;;;;;21270;6687;69825;-87
2021/12/02 06:11:28;;;;;;;1.20;1.10;;;7.50;57.70;;;;;;21051;6687;302858;-90
2021/12/02 06:13:53;;;;;;;1.30;1.20;;;7.50;57.90;;;;;;21065;6687;306109;-85
2021/12/02 06:16:21;;;;;;;1.47;1.03;;;7.90;56.70;;;;;;21070;6687;297413;-85
2021/12/02 06:18:45;;;;;;;1.17;1.10;;;7.90;56.70;;;;;;21247;6687;71394;-84
2021/12/02 06:21:11;;;;;;;2.57;1.13;;;7.70;56.70;;;;;;21041;6687;274379;-86
2021/12/02 06:23:39;;;;;;;1.62;1.00;;;7.70;56.90;;;;;;21260;6687;67104;-88
2021/12/02 06:26:02;;;;;;;0.90;0.90;;;7.60;57.20;;;;;;21265;6687;67604;-87
2021/12/02 06:28:27;;;;;;;2.30;1.30;;;7.30;57.90;;;;;;21054;6687;302501;-88
2021/12/02 06:30:53;;;;;;;1.40;1.20;;;7.30;58.10;;;;;;21067;6687;325758;-86
2021/12/02 06:33:19;;;;;;;1.63;1.20;;;7.50;57.90;;;;;;21308;6687;67351;-85
2021/12/02 06:35:45;;;;;;;1.90;1.20;;;7.50;57.50;;;;;;21307;6687;66583;-88
2021/12/02 06:38:11;;;;;;;5.95;1.02;;;7.30;58.20;;;;;;21261;6687;66641;-87
2021/12/02 06:40:37;;;;;;;1.25;1.15;;;7.00;58.80;;;;;;21269;6686;67100;-85
2021/12/02 06:43:02;;;;;;;2.83;1.37;;;6.80;59.30;;;;;;21037;6687;331008;-87
2021/12/02 06:45:34;;;;;;;1.20;1.10;;;7.00;60.80;;;;;;21048;6687;274063;-88
2021/12/02 06:47:59;;;;;;;2.63;1.23;;;7.40;60.50;;;;;;21246;6687;67005;-88
2021/12/02 06:50:21;;;;;;;1.05;0.98;;;7.50;59.90;;;;;;21255;6687;66269;-86
2021/12/02 06:52:46;;;;;;;1.67;0.80;;;7.30;60.00;;;;;;21277;6687;67480;-86
2021/12/02 06:55:12;;;;;;;1.30;1.20;;;7.20;60.40;;;;;;21302;6687;67436;-89
2021/12/02 06:57:37;;;;;;;1.00;0.90;;;7.10;60.80;;;;;;21069;6687;300030;-87
2021/12/02 07:00:07;;;;;;;0.80;0.80;;;7.40;60.70;;;;;;21288;6687;67111;-85
2021/12/02 07:02:30;;;;;;;1.63;1.20;;;7.40;60.70;;;;;;21263;6687;88586;-86
2021/12/02 07:04:57;;;;;;;0.98;0.95;;;7.40;60.90;;;;;;21284;6687;70319;-87
2021/12/02 07:07:20;;;;;;;2.62;2.22;;;7.30;61.00;;;;;;21275;6687;70968;-87
2021/12/02 07:09:46;;;;;;;1.45;1.42;;;7.20;61.20;;;;;;21284;6687;67506;-86
2021/12/02 07:12:12;;;;;;;1.85;1.75;;;7.10;61.20;;;;;;21279;6687;66588;-86
2021/12/02 07:14:38;;;;;;;2.40;2.20;;;7.10;61.20;;;;;;21278;6687;66907;-86
2021/12/02 07:17:04;;;;;;;2.72;2.50;;;7.20;60.50;;;;;;21062;6687;273942;-86
2021/12/02 07:19:30;;;;;;;3.00;2.80;;;7.10;60.40;;;;;;21274;6687;67500;-87
2021/12/02 07:21:56;;;;;;;11.68;9.40;;;7.10;60.20;;;;;;21277;6687;70726;-91
2021/12/02 07:24:23;;;;;;;9.30;8.40;;;7.10;60.20;;;;;;21260;6687;66931;-86
2021/12/02 07:26:47;;;;;;;6.70;5.97;;;7.00;60.30;;;;;;21044;6687;273153;-91
2021/12/02 07:29:13;;;;;;;12.20;8.52;;;7.10;59.10;;;;;;21267;6687;67332;-90
2021/12/02 07:31:38;;;;;;;5.83;4.70;;;6.90;58.60;;;;;;21258;6687;66802;-85
2021/12/02 07:34:04;;;;;;;6.90;6.20;;;6.70;59.00;;;;;;21048;6687;332319;-88
2021/12/02 07:36:29;;;;;;;4.37;3.85;;;6.80;59.20;;;;;;21053;6687;304999;-90
2021/12/02 07:38:56;;;;;;;3.83;3.53;;;7.20;57.80;;;;;;21048;6687;307032;-90
2021/12/02 07:41:21;;;;;;;10.65;9.55;;;7.30;57.90;;;;;;21047;6687;323779;-86
2021/12/02 07:43:47;;;;;;;4.50;4.20;;;7.40;57.40;;;;;;21270;6687;66942;-87
2021/12/02 07:46:12;;;;;;;16.60;12.93;;;7.20;57.50;;;;;;21284;6687;67666;-90
2021/12/02 07:48:38;;;;;;;12.60;9.23;;;6.90;58.40;;;;;;21236;6702;67593;-86
2021/12/02 07:51:10;;;;;;;5.77;5.27;;;6.60;59.30;;;;;;21247;6700;66686;-92
2021/12/02 07:53:36;;;;;;;16.27;13.90;;;6.40;61.30;;;;;;21295;6686;66978;-92
2021/12/02 07:56:03;;;;;;;6.12;5.68;;;6.40;61.30;;;;;;20991;6702;298047;-87
2021/12/02 07:58:27;;;;;;;2.07;1.97;;;6.70;61.50;;;;;;21282;6687;67215;-91
2021/12/02 08:00:53;;;;;;;4.53;3.80;;;6.90;61.20;;;;;;21210;6702;67179;-87
2021/12/02 08:03:19;;;;;;;5.15;3.42;;;6.90;61.50;;;;;;21244;6687;68110;-85
2021/12/02 08:05:44;;;;;;;12.10;10.83;;;6.90;61.60;;;;;;21291;6687;67867;-86
2021/12/02 08:08:10;;;;;;;8.32;7.62;;;6.80;61.50;;;;;;21057;6687;303942;-85
2021/12/02 08:10:35;;;;;;;5.90;5.40;;;7.10;60.60;;;;;;21286;6687;66556;-85
2021/12/02 08:13:02;;;;;;;11.57;10.48;;;7.10;60.00;;;;;;21017;6702;335337;-87
2021/12/02 08:15:26;;;;;;;4.87;4.40;;;7.20;59.30;;;;;;21212;6702;67654;-85
2021/12/02 08:17:52;;;;;;;3.23;2.93;;;7.20;59.10;;;;;;21274;6687;89029;-87
2021/12/02 08:20:17;;;;;;;15.27;10.67;;;7.00;59.50;;;;;;21205;6702;67102;-86
2021/12/02 08:22:43;;;;;;;7.30;6.70;;;6.80;60.10;;;;;;21036;6687;336040;-85
2021/12/02 08:25:08;;;;;;;10.47;7.83;;;7.00;60.00;;;;;;21287;6687;69040;-86
2021/12/02 08:27:34;;;;;;;19.20;13.30;;;7.00;59.90;;;;;;21224;6702;67040;-90
2021/12/02 08:30:02;;;;;;;15.35;11.00;;;6.90;60.30;;;;;;21218;6702;67218;-85
2021/12/02 08:32:25;;;;;;;3.20;2.90;;;6.70;60.80;;;;;;21258;6687;69625;-87
2021/12/02 08:34:53;;;;;;;2.67;2.47;;;6.60;61.20;;;;;;21222;6702;66725;-92
2021/12/02 08:37:16;;;;;;;3.73;3.43;;;6.60;61.50;;;;;;21033;6687;303649;-85
2021/12/02 08:39:43;;;;;;;2.00;1.90;;;6.80;60.80;;;;;;21219;6702;67152;-86
2021/12/02 08:42:09;;;;;;;3.10;2.80;;;6.90;60.40;;;;;;21220;6702;67004;-89
2021/12/02 08:44:37;;;;;;;2.90;2.70;;;6.80;60.60;;;;;;21009;6702;306873;-87
2021/12/02 08:46:58;;;;;;;2.47;2.27;;;7.00;59.70;;;;;;20993;6702;275574;-86
2021/12/02 08:49:24;;;;;;;3.47;3.17;;;7.30;58.50;;;;;;20999;6702;274925;-87
2021/12/02 08:51:51;;;;;;;3.47;3.23;;;7.60;57.50;;;;;;21219;6702;68008;-86
2021/12/02 08:54:15;;;;;;;4.07;3.78;;;7.60;57.70;;;;;;21263;6687;67220;-86
2021/12/02 08:56:41;;;;;;;7.20;6.22;;;7.40;58.40;;;;;;21213;6702;67341;-89
2021/12/02 08:59:06;;;;;;;4.93;4.53;;;7.20;59.00;;;;;;20989;6702;333876;-86
2021/12/02 09:01:33;;;;;;;2.03;1.20;;;7.30;58.40;;;;;;21234;6702;68929;-89
2021/12/02 09:03:57;;;;;;;2.42;2.33;;;7.30;59.00;;;;;;20995;6700;305004;-89
2021/12/02 09:06:23;;;;;;;2.90;1.90;;;7.40;57.50;;;;;;21221;6702;67462;-86
2021/12/02 09:08:48;;;;;;;1.90;1.80;;;7.40;57.50;;;;;;21014;6702;336923;-91
2021/12/02 09:11:14;;;;;;;3.77;3.57;;;7.50;57.40;;;;;;21233;6702;72074;-89
2021/12/02 09:13:40;;;;;;;9.50;9.00;;;7.50;57.50;;;;;;21218;6702;67730;-86
2021/12/02 09:16:05;;;;;;;1.90;1.70;;;7.30;58.10;;;;;;21233;6702;67675;-88
2021/12/02 09:18:31;;;;;;;1.83;1.50;;;7.10;58.60;;;;;;21016;6702;303702;-89
2021/12/02 09:20:58;;;;;;;5.40;5.10;;;7.30;58.50;;;;;;21263;6702;66884;-86
2021/12/02 09:23:22;;;;;;;2.27;2.00;;;7.40;58.50;;;;;;21022;6702;297975;-86
2021/12/02 09:25:47;;;;;;;2.15;1.35;;;7.60;58.30;;;;;;21065;6687;274363;-87
2021/12/02 09:28:13;;;;;;;1.60;1.50;;;7.90;57.10;;;;;;21057;6687;273557;-89
2021/12/02 09:30:39;;;;;;;1.58;1.40;;;8.20;56.30;;;;;;20997;6702;306620;-86
2021/12/02 09:33:04;;;;;;;2.67;2.47;;;8.50;55.20;;;;;;21035;6689;274482;-87
2021/12/02 09:35:30;;;;;;;1.98;1.77;;;8.70;54.80;;;;;;20977;6702;309728;-90
2021/12/02 09:37:55;;;;;;;1.90;1.70;;;8.90;54.40;;;;;;21210;6702;66643;-85
2021/12/02 09:40:21;;;;;;;1.60;1.40;;;8.70;54.50;;;;;;21051;6687;305536;-88
2021/12/02 09:42:47;;;;;;;3.73;1.80;;;8.70;54.40;;;;;;21204;6702;67057;-85
2021/12/02 09:45:13;;;;;;;3.30;3.00;;;8.70;54.90;;;;;;21259;6687;71474;-88
2021/12/02 09:47:38;;;;;;;11.00;6.57;;;8.40;55.60;;;;;;21261;6687;67008;-86
2021/12/02 09:50:10;;;;;;;8.80;4.95;;;8.30;56.50;;;;;;21250;6687;66625;-87
2021/12/02 09:52:37;;;;;;;4.57;3.40;;;8.00;57.40;;;;;;21234;6687;66962;-86
2021/12/02 09:57:36;;;;;;;4.53;2.30;;;7.90;57.80;;;;;;20574;6687;72973;-87
2021/12/02 09:59:57;;;;;;;3.40;3.10;;;7.80;58.20;;;;;;21045;6687;304762;-91
2021/12/02 10:02:23;;;;;;;2.20;2.00;;;8.00;57.30;;;;;;21082;6687;285842;-90
2021/12/02 10:04:56;;;;;;;1.23;1.23;;;8.40;56.30;;;;;;21304;6687;70263;-87
2021/12/02 10:07:30;;;;;;;1.33;1.23;;;8.50;56.20;;;;;;21245;6687;67196;-88
2021/12/02 10:10:03;;;;;;;2.37;1.23;;;8.30;56.60;;;;;;21030;6687;286097;-88
2021/12/02 10:12:23;;;;;;;2.30;2.07;;;8.50;55.80;;;;;;21222;6687;66542;-86
2021/12/02 10:14:50;;;;;;;1.60;1.23;;;8.50;55.80;;;;;;21057;6685;286044;-84
2021/12/02 10:20:33;;;;;;;1.40;1.30;;;8.80;55.00;;;;;;21041;6687;274908;-85
2021/12/02 10:22:37;;;;;;;1.30;1.00;;;8.70;54.90;;;;;;21115;6687;67053;-84
2021/12/02 10:25:02;;;;;;;1.50;1.30;;;8.70;55.20;;;;;;21259;6687;67038;-87
2021/12/02 10:27:28;;;;;;;1.30;1.20;;;8.50;56.10;;;;;;21081;6687;290480;-87
2021/12/02 10:29:54;;;;;;;0.90;0.90;;;8.60;55.00;;;;;;21251;6687;67489;-87
2021/12/02 10:32:21;;;;;;;1.37;1.17;;;8.60;55.00;;;;;;21258;6687;72609;-85
2021/12/02 10:34:58;;;;;;;2.47;0.83;;;8.40;55.60;;;;;;21254;6687;67079;-87
2021/12/02 10:37:27;;;;;;;1.87;1.10;;;8.30;56.20;;;;;;21062;6687;278602;-88
2021/12/02 10:39:56;;;;;;;1.20;1.03;;;8.80;54.60;;;;;;21057;6687;304059;-86
2021/12/02 10:42:22;;;;;;;1.80;1.37;;;8.80;54.50;;;;;;21040;6687;295970;-84
2021/12/02 10:44:48;;;;;;;1.20;1.10;;;9.00;54.40;;;;;;21256;6687;70861;-90
2021/12/02 10:47:13;;;;;;;3.03;0.90;;;9.00;54.60;;;;;;21256;6687;67828;-87
2021/12/02 10:49:43;;;;;;;0.73;0.70;;;8.80;54.80;;;;;;21037;6687;284004;-87
2021/12/02 10:52:21;;;;;;;1.27;0.80;;;8.70;54.70;;;;;;21243;6687;68521;-90
2021/12/02 10:54:47;;;;;;;0.83;0.70;;;8.60;55.00;;;;;;21251;6687;67529;-89
2021/12/02 10:57:19;;;;;;;0.60;0.47;;;8.30;55.50;;;;;;21206;6687;67487;-84
2021/12/02 10:59:46;;;;;;;2.07;1.03;;;8.10;56.20;;;;;;21027;6687;307585;-88
2021/12/02 11:02:25;;;;;;;0.60;0.60;;;8.10;56.10;;;;;;21238;6687;70451;-88
2021/12/02 11:04:53;;;;;;;4.23;0.80;;;7.90;56.50;;;;;;21067;6687;72922;-84
2021/12/02 11:07:19;;;;;;;0.68;0.60;;;7.90;56.50;;;;;;21029;6687;302149;-91
2021/12/02 11:09:45;;;;;;;0.60;0.60;;;8.00;56.00;;;;;;21277;6687;67017;-87
2021/12/02 11:12:14;;;;;;;2.33;0.87;;;8.00;55.90;;;;;;21045;6687;302979;-85
2021/12/02 11:14:39;;;;;;;0.80;0.80;;;8.10;55.70;;;;;;21042;6687;302802;-84
2021/12/02 11:17:05;;;;;;;0.90;0.90;;;8.30;55.10;;;;;;21250;6687;70911;-86
2021/12/02 11:19:30;;;;;;;0.67;0.67;;;8.20;55.10;;;;;;21249;6687;70916;-90
2021/12/02 11:22:06;;;;;;;0.73;0.60;;;7.70;56.20;;;;;;21248;6687;67059;-88
2021/12/02 11:24:32;;;;;;;0.80;0.80;;;7.70;56.20;;;;;;21026;6687;307256;-84
2021/12/02 11:27:14;;;;;;;0.70;0.70;;;7.70;55.60;;;;;;21247;6685;67107;-85
2021/12/02 11:29:47;;;;;;;0.80;0.80;;;7.70;55.60;;;;;;21034;6687;301689;-85
2021/12/02 11:32:25;;;;;;;1.80;1.70;;;7.80;55.00;;;;;;21030;6687;287533;-85
2021/12/02 11:34:58;;;;;;;1.17;1.17;;;7.90;54.10;;;;;;21027;6687;332014;-90
2021/12/02 11:37:24;;;;;;;0.90;0.90;;;7.90;54.60;;;;;;21222;6687;67421;-88
2021/12/02 11:39:50;;;;;;;1.10;0.87;;;7.90;54.60;;;;;;21022;6687;302919;-86
2021/12/02 11:42:16;;;;;;;2.03;1.93;;;8.00;54.20;;;;;;21033;6687;274445;-85
2021/12/02 11:44:41;;;;;;;1.67;1.58;;;8.00;54.10;;;;;;21082;6687;302086;-89
2021/12/02 11:47:07;;;;;;;1.10;0.95;;;8.20;53.60;;;;;;21061;6687;274014;-87
2021/12/02 11:49:32;;;;;;;0.50;0.50;;;8.30;53.50;;;;;;21249;6687;67800;-86
2021/12/02 11:51:59;;;;;;;0.60;0.60;;;7.70;54.30;;;;;;21242;6687;66731;-85
2021/12/02 11:54:24;;;;;;;0.80;0.80;;;7.70;54.30;;;;;;21297;6687;67414;-89
2021/12/02 11:56:51;;;;;;;1.20;1.20;;;7.10;56.20;;;;;;21269;6687;67066;-86
2021/12/02 11:59:16;;;;;;;1.10;1.10;;;7.10;56.10;;;;;;21254;6687;67300;-88
2021/12/02 12:01:43;;;;;;;1.60;1.50;;;7.30;58.20;;;;;;21031;6687;303682;-87
2021/12/02 12:04:08;;;;;;;2.00;1.90;;;7.30;58.20;;;;;;21042;6687;273973;-85
2021/12/02 12:06:34;;;;;;;1.52;1.50;;;8.10;58.90;;;;;;21022;6687;304008;-89
2021/12/02 12:09:00;;;;;;;0.97;0.97;;;8.00;58.80;;;;;;21258;6687;66633;-85
2021/12/02 12:11:31;;;;;;;1.50;1.50;;;8.10;58.40;;;;;;21296;6687;67503;-89
2021/12/02 12:14:03;;;;;;;1.00;1.00;;;7.90;58.90;;;;;;21253;6687;67958;-86
2021/12/02 12:16:39;;;;;;;1.30;1.20;;;7.70;59.30;;;;;;21253;6687;67605;-90
2021/12/02 12:19:29;;;;;;;1.50;1.40;;;7.60;60.00;;;;;;21243;6687;66996;-86
2021/12/02 12:22:03;;;;;;;1.13;1.13;;;7.50;60.50;;;;;;21246;6687;67563;-93
2021/12/02 12:24:49;;;;;;;1.30;1.30;;;7.50;61.10;;;;;;21026;6687;318898;-85
2021/12/02 12:27:24;;;;;;;1.57;1.47;;;7.80;60.90;;;;;;21248;6687;67081;-87
2021/12/02 12:30:08;;;;;;;1.23;1.13;;;7.90;60.60;;;;;;21253;6687;67148;-90
2021/12/02 12:32:49;;;;;;;1.60;1.50;;;7.80;60.80;;;;;;21253;6687;67015;-88
2021/12/02 12:35:15;;;;;;;1.20;1.20;;;7.70;61.00;;;;;;21033;6687;304000;-89
2021/12/02 12:37:48;;;;;;;2.12;1.92;;;7.90;59.90;;;;;;21251;6685;68284;-85
2021/12/02 12:40:28;;;;;;;1.40;1.30;;;8.00;60.00;;;;;;21274;6686;67060;-88
2021/12/02 12:42:56;;;;;;;1.30;1.30;;;7.90;59.80;;;;;;21053;6687;276189;-89
2021/12/02 12:45:22;;;;;;;1.10;1.10;;;8.20;60.60;;;;;;21059;6687;274742;-89
2021/12/02 12:47:48;;;;;;;1.30;1.30;;;8.50;60.30;;;;;;21254;6687;66843;-90
2021/12/02 12:50:26;;;;;;;2.20;1.00;;;8.60;60.60;;;;;;21243;6687;71516;-86
2021/12/02 12:53:03;;;;;;;0.90;0.90;;;8.50;60.50;;;;;;21250;6687;66954;-88
2021/12/02 12:55:28;;;;;;;1.30;1.20;;;8.40;61.20;;;;;;21043;6687;304350;-84
2021/12/02 12:58:17;;;;;;;0.83;0.83;;;8.60;61.40;;;;;;21271;6687;66531;-84
2021/12/02 13:00:43;;;;;;;1.10;1.10;;;8.60;60.80;;;;;;20441;6687;300444;-91
2021/12/02 13:03:14;;;;;;;1.20;1.10;;;8.80;61.10;;;;;;21291;6687;69296;-84
2021/12/02 13:05:52;;;;;;;1.10;1.00;;;8.80;60.70;;;;;;21036;6687;275810;-85
2021/12/02 13:08:16;;;;;;;1.50;1.40;;;9.00;60.10;;;;;;21053;6687;303561;-89
2021/12/02 13:10:55;;;;;;;0.85;0.85;;;9.30;59.10;;;;;;21066;6687;273431;-85